sensor_id;sensor_type;location;lat;lon;timestamp;temperature;humidity
1367;DHT22;16877;48.810;9.282;2022-11-20T00:02:09;17.10;54.50
1367;DHT22;16877;48.810;9.282;2022-11-20T00:04:35;17.10;54.50
1367;DHT22;16877;48.810;9.282;2022-11-20T00:07:02;17.20;54.60
1367;DHT22;16877;48.810;9.282;2022-11-20T00:09:30;17.20;54.60
1367;DHT22;16877;48.810;9.282;2022-11-20T00:11:57;17.20;54.60
1367;DHT22;16877;48.810;9.282;2022-11-20T00:14:23;17.10;54.50
1367;DHT22;16877;48.810;9.282;2022-11-20T00:16:50;17.10;54.60
1367;DHT22;16877;48.810;9.282;2022-11-20T00:19:17;17.10;54.50
1367;DHT22;16877;48.810;9.282;2022-11-20T00:21:43;17.10;54.50
1367;DHT22;16877;48.810;9.282;2022-11-20T00:24:10;17.10;54.60
1367;DHT22;16877;48.810;9.282;2022-11-20T00:26:38;17.10;54.60
1367;DHT22;16877;48.810;9.282;2022-11-20T00:29:05;17.10;54.60
1367;DHT22;16877;48.810;9.282;2022-11-20T00:31:32;17.10;54.60
1367;DHT22;16877;48.810;9.282;2022-11-20T00:33:59;17.10;54.60
1367;DHT22;16877;48.810;9.282;2022-11-20T00:36:27;17.10;54.60
1367;DHT22;16877;48.810;9.282;2022-11-20T00:38:55;17.00;54.60
1367;DHT22;16877;48.810;9.282;2022-11-20T00:41:23;17.10;54.60
1367;DHT22;16877;48.810;9.282;2022-11-20T00:43:53;17.10;54.60
1367;DHT22;16877;48.810;9.282;2022-11-20T00:46:21;17.00;54.50
1367;DHT22;16877;48.810;9.282;2022-11-20T00:48:49;17.00;54.60
1367;DHT22;16877;48.810;9.282;2022-11-20T00:51:17;17.00;54.50
1367;DHT22;16877;48.810;9.282;2022-11-20T00:53:45;17.00;54.50
1367;DHT22;16877;48.810;9.282;2022-11-20T00:56:14;17.00;54.40
1367;DHT22;16877;48.810;9.282;2022-11-20T00:58:43;17.00;54.40
1367;DHT22;16877;48.810;9.282;2022-11-20T01:01:13;17.00;54.40
1367;DHT22;16877;48.810;9.282;2022-11-20T01:03:42;17.00;54.30
1367;DHT22;16877;48.810;9.282;2022-11-20T01:06:11;16.90;54.30
1367;DHT22;16877;48.810;9.282;2022-11-20T01:08:38;16.90;54.30
1367;DHT22;16877;48.810;9.282;2022-11-20T01:11:11;16.90;54.40
1367;DHT22;16877;48.810;9.282;2022-11-20T01:13:38;16.90;54.50
1367;DHT22;16877;48.810;9.282;2022-11-20T01:16:07;16.90;54.40
1367;DHT22;16877;48.810;9.282;2022-11-20T01:18:36;16.90;54.50
1367;DHT22;16877;48.810;9.282;2022-11-20T01:21:05;17.00;54.60
1367;DHT22;16877;48.810;9.282;2022-11-20T01:23:32;17.00;54.60
1367;DHT22;16877;48.810;9.282;2022-11-20T01:26:00;16.90;54.50
1367;DHT22;16877;48.810;9.282;2022-11-20T01:28:28;17.00;55.30
1367;DHT22;16877;48.810;9.282;2022-11-20T01:30:55;17.00;54.70
1367;DHT22;16877;48.810;9.282;2022-11-20T01:33:22;17.00;54.70
1367;DHT22;16877;48.810;9.282;2022-11-20T01:35:50;17.00;54.70
1367;DHT22;16877;48.810;9.282;2022-11-20T01:38:17;17.00;54.70
1367;DHT22;16877;48.810;9.282;2022-11-20T01:40:45;16.90;54.30
1367;DHT22;16877;48.810;9.282;2022-11-20T01:43:14;16.90;54.10
1367;DHT22;16877;48.810;9.282;2022-11-20T01:45:58;16.80;54.00
1367;DHT22;16877;48.810;9.282;2022-11-20T01:48:28;16.80;54.00
1367;DHT22;16877;48.810;9.282;2022-11-20T01:50:58;16.80;53.70
1367;DHT22;16877;48.810;9.282;2022-11-20T01:53:27;16.70;53.60
1367;DHT22;16877;48.810;9.282;2022-11-20T01:55:57;16.70;53.60
1367;DHT22;16877;48.810;9.282;2022-11-20T01:58:29;16.70;53.30
1367;DHT22;16877;48.810;9.282;2022-11-20T02:00:56;16.60;53.20
1367;DHT22;16877;48.810;9.282;2022-11-20T02:03:23;16.60;53.20
1367;DHT22;16877;48.810;9.282;2022-11-20T02:05:53;16.60;53.40
1367;DHT22;16877;48.810;9.282;2022-11-20T02:08:23;16.60;53.30
1367;DHT22;16877;48.810;9.282;2022-11-20T02:10:50;16.50;53.30
1367;DHT22;16877;48.810;9.282;2022-11-20T02:13:17;16.50;53.00
1367;DHT22;16877;48.810;9.282;2022-11-20T02:16:01;16.40;53.00
1367;DHT22;16877;48.810;9.282;2022-11-20T02:18:28;16.40;53.00
1367;DHT22;16877;48.810;9.282;2022-11-20T02:21:03;16.30;53.10
1367;DHT22;16877;48.810;9.282;2022-11-20T02:23:37;16.30;53.20
1367;DHT22;16877;48.810;9.282;2022-11-20T02:26:09;16.40;53.10
1367;DHT22;16877;48.810;9.282;2022-11-20T02:28:37;16.40;53.20
1367;DHT22;16877;48.810;9.282;2022-11-20T02:31:04;16.30;53.10
1367;DHT22;16877;48.810;9.282;2022-11-20T02:33:31;16.40;53.30
1367;DHT22;16877;48.810;9.282;2022-11-20T02:35:58;16.40;53.30
1367;DHT22;16877;48.810;9.282;2022-11-20T02:38:24;16.40;53.10
1367;DHT22;16877;48.810;9.282;2022-11-20T02:40:51;16.40;53.00
1367;DHT22;16877;48.810;9.282;2022-11-20T02:43:19;16.30;53.00
1367;DHT22;16877;48.810;9.282;2022-11-20T02:45:46;16.30;53.00
1367;DHT22;16877;48.810;9.282;2022-11-20T02:48:12;16.30;53.10
1367;DHT22;16877;48.810;9.282;2022-11-20T02:50:39;16.30;52.90
1367;DHT22;16877;48.810;9.282;2022-11-20T02:53:06;16.30;52.90
1367;DHT22;16877;48.810;9.282;2022-11-20T02:55:33;16.30;52.80
1367;DHT22;16877;48.810;9.282;2022-11-20T02:58:00;16.20;52.40
1367;DHT22;16877;48.810;9.282;2022-11-20T03:00:28;16.20;52.60
1367;DHT22;16877;48.810;9.282;2022-11-20T03:02:54;16.20;52.80
1367;DHT22;16877;48.810;9.282;2022-11-20T03:05:21;16.10;52.50
1367;DHT22;16877;48.810;9.282;2022-11-20T03:07:48;16.10;52.70
1367;DHT22;16877;48.810;9.282;2022-11-20T03:10:15;16.00;52.60
1367;DHT22;16877;48.810;9.282;2022-11-20T03:12:42;16.00;52.60
1367;DHT22;16877;48.810;9.282;2022-11-20T03:15:09;16.00;52.60
1367;DHT22;16877;48.810;9.282;2022-11-20T03:17:38;15.90;52.40
1367;DHT22;16877;48.810;9.282;2022-11-20T03:20:05;15.80;52.20
1367;DHT22;16877;48.810;9.282;2022-11-20T03:22:32;15.80;52.40
1367;DHT22;16877;48.810;9.282;2022-11-20T03:24:59;15.80;52.40
1367;DHT22;16877;48.810;9.282;2022-11-20T03:27:26;15.80;52.50
1367;DHT22;16877;48.810;9.282;2022-11-20T03:29:52;15.70;52.40
1367;DHT22;16877;48.810;9.282;2022-11-20T03:32:19;15.70;52.60
1367;DHT22;16877;48.810;9.282;2022-11-20T03:34:47;15.70;52.60
1367;DHT22;16877;48.810;9.282;2022-11-20T03:37:14;15.70;52.80
1367;DHT22;16877;48.810;9.282;2022-11-20T03:39:40;15.70;52.80
1367;DHT22;16877;48.810;9.282;2022-11-20T03:42:08;15.70;52.90
1367;DHT22;16877;48.810;9.282;2022-11-20T03:44:55;15.70;53.00
1367;DHT22;16877;48.810;9.282;2022-11-20T03:47:21;15.60;53.00
1367;DHT22;16877;48.810;9.282;2022-11-20T03:49:49;15.60;52.80
1367;DHT22;16877;48.810;9.282;2022-11-20T03:52:16;15.60;52.70
1367;DHT22;16877;48.810;9.282;2022-11-20T03:54:43;15.60;52.70
1367;DHT22;16877;48.810;9.282;2022-11-20T03:57:10;15.60;52.60
1367;DHT22;16877;48.810;9.282;2022-11-20T03:59:36;15.60;52.70
1367;DHT22;16877;48.810;9.282;2022-11-20T04:02:03;15.50;52.70
1367;DHT22;16877;48.810;9.282;2022-11-20T04:04:30;15.50;53.10
1367;DHT22;16877;48.810;9.282;2022-11-20T04:06:58;15.50;52.80
1367;DHT22;16877;48.810;9.282;2022-11-20T04:09:24;15.40;52.60
1367;DHT22;16877;48.810;9.282;2022-11-20T04:11:51;15.40;52.60
1367;DHT22;16877;48.810;9.282;2022-11-20T04:14:18;15.40;52.70
1367;DHT22;16877;48.810;9.282;2022-11-20T04:16:45;15.40;52.60
1367;DHT22;16877;48.810;9.282;2022-11-20T04:19:13;15.40;52.70
1367;DHT22;16877;48.810;9.282;2022-11-20T04:21:40;15.40;52.70
1367;DHT22;16877;48.810;9.282;2022-11-20T04:24:08;15.40;52.70
1367;DHT22;16877;48.810;9.282;2022-11-20T04:26:36;15.30;52.60
1367;DHT22;16877;48.810;9.282;2022-11-20T04:29:02;15.30;52.60
1367;DHT22;16877;48.810;9.282;2022-11-20T04:31:31;15.30;52.50
1367;DHT22;16877;48.810;9.282;2022-11-20T04:33:59;15.30;52.60
1367;DHT22;16877;48.810;9.282;2022-11-20T04:36:27;15.30;52.70
1367;DHT22;16877;48.810;9.282;2022-11-20T04:38:55;15.30;52.80
1367;DHT22;16877;48.810;9.282;2022-11-20T04:41:26;15.30;52.50
1367;DHT22;16877;48.810;9.282;2022-11-20T04:43:55;15.30;52.70
1367;DHT22;16877;48.810;9.282;2022-11-20T04:46:25;15.40;52.60
1367;DHT22;16877;48.810;9.282;2022-11-20T04:48:52;15.30;52.70
1367;DHT22;16877;48.810;9.282;2022-11-20T04:51:19;15.40;52.80
1367;DHT22;16877;48.810;9.282;2022-11-20T04:53:46;15.30;53.10
1367;DHT22;16877;48.810;9.282;2022-11-20T04:56:13;15.40;53.00
1367;DHT22;16877;48.810;9.282;2022-11-20T04:58:41;15.40;52.90
1367;DHT22;16877;48.810;9.282;2022-11-20T05:01:11;15.40;52.80
1367;DHT22;16877;48.810;9.282;2022-11-20T05:03:38;15.40;52.80
1367;DHT22;16877;48.810;9.282;2022-11-20T05:06:06;15.40;52.80
1367;DHT22;16877;48.810;9.282;2022-11-20T05:08:33;15.40;53.00
1367;DHT22;16877;48.810;9.282;2022-11-20T05:11:01;15.40;52.90
1367;DHT22;16877;48.810;9.282;2022-11-20T05:13:28;15.50;53.00
1367;DHT22;16877;48.810;9.282;2022-11-20T05:16:01;15.40;52.50
1367;DHT22;16877;48.810;9.282;2022-11-20T05:18:28;15.40;52.50
1367;DHT22;16877;48.810;9.282;2022-11-20T05:20:55;15.40;52.60
1367;DHT22;16877;48.810;9.282;2022-11-20T05:23:22;15.30;52.40
1367;DHT22;16877;48.810;9.282;2022-11-20T05:25:52;15.30;52.50
1367;DHT22;16877;48.810;9.282;2022-11-20T05:28:19;15.30;52.60
1367;DHT22;16877;48.810;9.282;2022-11-20T05:30:45;15.30;52.70
1367;DHT22;16877;48.810;9.282;2022-11-20T05:33:14;15.30;52.90
1367;DHT22;16877;48.810;9.282;2022-11-20T05:35:41;15.30;52.70
1367;DHT22;16877;48.810;9.282;2022-11-20T05:38:07;15.30;52.60
1367;DHT22;16877;48.810;9.282;2022-11-20T05:40:34;15.20;52.50
1367;DHT22;16877;48.810;9.282;2022-11-20T05:43:01;15.30;52.80
1367;DHT22;16877;48.810;9.282;2022-11-20T05:45:28;15.30;53.10
1367;DHT22;16877;48.810;9.282;2022-11-20T05:47:57;15.30;53.00
1367;DHT22;16877;48.810;9.282;2022-11-20T05:50:26;15.30;52.90
1367;DHT22;16877;48.810;9.282;2022-11-20T05:52:53;15.30;52.80
1367;DHT22;16877;48.810;9.282;2022-11-20T05:55:20;15.30;53.00
1367;DHT22;16877;48.810;9.282;2022-11-20T05:57:47;15.30;53.10
1367;DHT22;16877;48.810;9.282;2022-11-20T06:00:14;15.30;52.90
1367;DHT22;16877;48.810;9.282;2022-11-20T06:02:41;15.40;52.90
1367;DHT22;16877;48.810;9.282;2022-11-20T06:05:08;15.30;52.70
1367;DHT22;16877;48.810;9.282;2022-11-20T06:07:36;15.30;53.10
1367;DHT22;16877;48.810;9.282;2022-11-20T06:10:03;15.40;53.00
1367;DHT22;16877;48.810;9.282;2022-11-20T06:12:31;15.30;53.00
1367;DHT22;16877;48.810;9.282;2022-11-20T06:14:58;15.30;52.90
1367;DHT22;16877;48.810;9.282;2022-11-20T06:17:25;15.30;52.90
1367;DHT22;16877;48.810;9.282;2022-11-20T06:19:51;15.40;53.00
1367;DHT22;16877;48.810;9.282;2022-11-20T06:22:18;15.40;53.00
1367;DHT22;16877;48.810;9.282;2022-11-20T06:24:46;15.40;52.70
1367;DHT22;16877;48.810;9.282;2022-11-20T06:27:13;15.40;52.70
1367;DHT22;16877;48.810;9.282;2022-11-20T06:29:40;15.40;53.00
1367;DHT22;16877;48.810;9.282;2022-11-20T06:32:06;15.40;53.20
1367;DHT22;16877;48.810;9.282;2022-11-20T06:34:33;15.40;53.10
1367;DHT22;16877;48.810;9.282;2022-11-20T06:37:00;15.40;53.00
1367;DHT22;16877;48.810;9.282;2022-11-20T06:39:26;15.40;53.10
1367;DHT22;16877;48.810;9.282;2022-11-20T06:41:54;15.40;52.80
1367;DHT22;16877;48.810;9.282;2022-11-20T06:44:21;15.40;52.60
1367;DHT22;16877;48.810;9.282;2022-11-20T06:46:48;15.40;52.80
1367;DHT22;16877;48.810;9.282;2022-11-20T06:49:14;15.30;52.80
1367;DHT22;16877;48.810;9.282;2022-11-20T06:51:41;15.30;52.90
1367;DHT22;16877;48.810;9.282;2022-11-20T06:54:08;15.30;52.80
1367;DHT22;16877;48.810;9.282;2022-11-20T06:56:34;15.30;52.70
1367;DHT22;16877;48.810;9.282;2022-11-20T06:59:05;15.40;52.80
1367;DHT22;16877;48.810;9.282;2022-11-20T07:01:32;15.40;52.90
1367;DHT22;16877;48.810;9.282;2022-11-20T07:04:00;15.30;52.60
1367;DHT22;16877;48.810;9.282;2022-11-20T07:06:27;15.40;52.60
1367;DHT22;16877;48.810;9.282;2022-11-20T07:08:54;15.30;52.50
1367;DHT22;16877;48.810;9.282;2022-11-20T07:11:20;15.30;52.50
1367;DHT22;16877;48.810;9.282;2022-11-20T07:13:47;15.30;52.50
1367;DHT22;16877;48.810;9.282;2022-11-20T07:16:15;15.30;52.60
1367;DHT22;16877;48.810;9.282;2022-11-20T07:18:42;15.30;52.80
1367;DHT22;16877;48.810;9.282;2022-11-20T07:21:10;15.30;52.70
1367;DHT22;16877;48.810;9.282;2022-11-20T07:23:37;15.30;52.50
1367;DHT22;16877;48.810;9.282;2022-11-20T07:26:04;15.30;52.50
1367;DHT22;16877;48.810;9.282;2022-11-20T07:28:32;15.30;52.50
1367;DHT22;16877;48.810;9.282;2022-11-20T07:30:59;15.40;52.50
1367;DHT22;16877;48.810;9.282;2022-11-20T07:33:27;15.40;52.40
1367;DHT22;16877;48.810;9.282;2022-11-20T07:35:54;15.40;52.50
1367;DHT22;16877;48.810;9.282;2022-11-20T07:38:20;15.40;52.50
1367;DHT22;16877;48.810;9.282;2022-11-20T07:40:47;15.50;52.60
1367;DHT22;16877;48.810;9.282;2022-11-20T07:43:14;15.60;52.60
1367;DHT22;16877;48.810;9.282;2022-11-20T07:45:41;15.70;52.70
1367;DHT22;16877;48.810;9.282;2022-11-20T07:48:07;15.80;52.40
1367;DHT22;16877;48.810;9.282;2022-11-20T07:50:35;15.80;53.10
1367;DHT22;16877;48.810;9.282;2022-11-20T07:53:03;15.90;52.60
1367;DHT22;16877;48.810;9.282;2022-11-20T07:55:30;15.90;52.50
1367;DHT22;16877;48.810;9.282;2022-11-20T07:57:57;15.90;52.20
1367;DHT22;16877;48.810;9.282;2022-11-20T08:00:25;15.90;52.20
1367;DHT22;16877;48.810;9.282;2022-11-20T08:02:53;15.90;52.30
1367;DHT22;16877;48.810;9.282;2022-11-20T08:05:19;15.90;52.30
1367;DHT22;16877;48.810;9.282;2022-11-20T08:07:48;15.90;52.50
1367;DHT22;16877;48.810;9.282;2022-11-20T08:10:15;15.90;53.10
1367;DHT22;16877;48.810;9.282;2022-11-20T08:12:46;16.00;52.40
1367;DHT22;16877;48.810;9.282;2022-11-20T08:15:31;15.90;52.40
1367;DHT22;16877;48.810;9.282;2022-11-20T08:18:02;16.00;52.50
1367;DHT22;16877;48.810;9.282;2022-11-20T08:20:29;15.90;52.40
1367;DHT22;16877;48.810;9.282;2022-11-20T08:23:03;15.90;52.30
1367;DHT22;16877;48.810;9.282;2022-11-20T08:25:31;15.90;52.40
1367;DHT22;16877;48.810;9.282;2022-11-20T08:27:58;15.80;52.30
1367;DHT22;16877;48.810;9.282;2022-11-20T08:30:25;15.80;52.40
1367;DHT22;16877;48.810;9.282;2022-11-20T08:32:53;15.80;52.40
1367;DHT22;16877;48.810;9.282;2022-11-20T08:35:20;15.90;52.50
1367;DHT22;16877;48.810;9.282;2022-11-20T08:37:46;15.90;52.50
1367;DHT22;16877;48.810;9.282;2022-11-20T08:40:15;15.90;52.50
1367;DHT22;16877;48.810;9.282;2022-11-20T08:42:46;16.00;52.50
1367;DHT22;16877;48.810;9.282;2022-11-20T08:45:14;16.00;52.50
1367;DHT22;16877;48.810;9.282;2022-11-20T08:47:40;16.00;52.60
1367;DHT22;16877;48.810;9.282;2022-11-20T08:50:08;16.00;52.80
1367;DHT22;16877;48.810;9.282;2022-11-20T08:52:35;16.10;53.00
1367;DHT22;16877;48.810;9.282;2022-11-20T08:55:02;16.10;52.90
1367;DHT22;16877;48.810;9.282;2022-11-20T08:57:32;16.20;53.00
1367;DHT22;16877;48.810;9.282;2022-11-20T08:59:59;16.20;52.90
1367;DHT22;16877;48.810;9.282;2022-11-20T09:02:26;16.20;52.80
1367;DHT22;16877;48.810;9.282;2022-11-20T09:04:53;16.30;52.90
1367;DHT22;16877;48.810;9.282;2022-11-20T09:07:20;16.30;52.80
1367;DHT22;16877;48.810;9.282;2022-11-20T09:09:47;16.30;52.80
1367;DHT22;16877;48.810;9.282;2022-11-20T09:12:14;16.30;52.80
1367;DHT22;16877;48.810;9.282;2022-11-20T09:14:42;16.30;52.60
1367;DHT22;16877;48.810;9.282;2022-11-20T09:17:10;16.30;52.60
1367;DHT22;16877;48.810;9.282;2022-11-20T09:19:39;16.30;52.60
1367;DHT22;16877;48.810;9.282;2022-11-20T09:22:05;16.30;52.60
1367;DHT22;16877;48.810;9.282;2022-11-20T09:24:32;16.30;52.70
1367;DHT22;16877;48.810;9.282;2022-11-20T09:27:02;16.30;52.70
1367;DHT22;16877;48.810;9.282;2022-11-20T09:29:29;16.30;52.50
1367;DHT22;16877;48.810;9.282;2022-11-20T09:31:57;16.20;52.40
1367;DHT22;16877;48.810;9.282;2022-11-20T09:34:24;16.30;53.00
1367;DHT22;16877;48.810;9.282;2022-11-20T09:36:50;16.20;52.30
1367;DHT22;16877;48.810;9.282;2022-11-20T09:39:17;16.30;52.40
1367;DHT22;16877;48.810;9.282;2022-11-20T09:42:04;16.30;52.30
1367;DHT22;16877;48.810;9.282;2022-11-20T09:44:47;16.30;52.90
1367;DHT22;16877;48.810;9.282;2022-11-20T09:47:24;16.20;52.30
1367;DHT22;16877;48.810;9.282;2022-11-20T09:50:02;16.20;52.50
1367;DHT22;16877;48.810;9.282;2022-11-20T09:52:40;16.20;52.50
1367;DHT22;16877;48.810;9.282;2022-11-20T09:55:10;16.20;52.60
1367;DHT22;16877;48.810;9.282;2022-11-20T09:57:40;16.20;52.60
1367;DHT22;16877;48.810;9.282;2022-11-20T10:00:11;16.20;52.60
1367;DHT22;16877;48.810;9.282;2022-11-20T10:02:44;16.20;52.50
1367;DHT22;16877;48.810;9.282;2022-11-20T10:05:17;16.20;52.40
1367;DHT22;16877;48.810;9.282;2022-11-20T10:07:48;16.20;52.40
1367;DHT22;16877;48.810;9.282;2022-11-20T10:10:27;16.20;52.60
1367;DHT22;16877;48.810;9.282;2022-11-20T10:13:05;16.20;52.60
1367;DHT22;16877;48.810;9.282;2022-11-20T10:15:43;16.20;52.60
1367;DHT22;16877;48.810;9.282;2022-11-20T10:18:22;16.20;53.00
1367;DHT22;16877;48.810;9.282;2022-11-20T10:20:59;16.20;53.20
1367;DHT22;16877;48.810;9.282;2022-11-20T10:23:52;16.20;53.20
1367;DHT22;16877;48.810;9.282;2022-11-20T10:26:28;16.20;53.20
1367;DHT22;16877;48.810;9.282;2022-11-20T10:29:09;16.10;53.10
1367;DHT22;16877;48.810;9.282;2022-11-20T10:31:37;16.10;53.10
1367;DHT22;16877;48.810;9.282;2022-11-20T10:34:12;16.00;53.00
1367;DHT22;16877;48.810;9.282;2022-11-20T10:36:45;16.00;53.10
1367;DHT22;16877;48.810;9.282;2022-11-20T10:39:17;16.00;53.40
1367;DHT22;16877;48.810;9.282;2022-11-20T10:41:50;16.00;53.50
1367;DHT22;16877;48.810;9.282;2022-11-20T10:44:20;16.00;53.80
1367;DHT22;16877;48.810;9.282;2022-11-20T10:47:01;15.90;53.90
1367;DHT22;16877;48.810;9.282;2022-11-20T10:49:30;15.90;54.10
1367;DHT22;16877;48.810;9.282;2022-11-20T10:52:05;15.90;54.30
1367;DHT22;16877;48.810;9.282;2022-11-20T10:54:41;15.90;55.00
1367;DHT22;16877;48.810;9.282;2022-11-20T10:57:20;15.90;54.60
1367;DHT22;16877;48.810;9.282;2022-11-20T11:00:03;16.00;55.30
1367;DHT22;16877;48.810;9.282;2022-11-20T11:02:42;15.90;54.70
1367;DHT22;16877;48.810;9.282;2022-11-20T11:05:22;15.90;55.10
1367;DHT22;16877;48.810;9.282;2022-11-20T11:07:50;15.80;54.80
1367;DHT22;16877;48.810;9.282;2022-11-20T11:10:22;15.80;55.00
1367;DHT22;16877;48.810;9.282;2022-11-20T11:12:50;15.90;55.00
1367;DHT22;16877;48.810;9.282;2022-11-20T11:15:26;15.90;54.90
1367;DHT22;16877;48.810;9.282;2022-11-20T11:17:54;15.90;54.90
1367;DHT22;16877;48.810;9.282;2022-11-20T11:20:24;15.90;55.00
1367;DHT22;16877;48.810;9.282;2022-11-20T11:22:52;16.00;55.10
1367;DHT22;16877;48.810;9.282;2022-11-20T11:25:23;16.00;55.20
1367;DHT22;16877;48.810;9.282;2022-11-20T11:27:52;16.00;55.40
1367;DHT22;16877;48.810;9.282;2022-11-20T11:30:21;16.00;55.40
1367;DHT22;16877;48.810;9.282;2022-11-20T11:32:48;16.10;55.60
1367;DHT22;16877;48.810;9.282;2022-11-20T11:35:26;16.10;55.60
1367;DHT22;16877;48.810;9.282;2022-11-20T11:37:55;16.30;55.80
1367;DHT22;16877;48.810;9.282;2022-11-20T11:40:31;16.50;55.80
1367;DHT22;16877;48.810;9.282;2022-11-20T11:42:59;17.00;56.20
1367;DHT22;16877;48.810;9.282;2022-11-20T11:45:26;17.50;56.40
1367;DHT22;16877;48.810;9.282;2022-11-20T11:47:54;18.00;56.40
1367;DHT22;16877;48.810;9.282;2022-11-20T11:50:23;18.40;56.10
1367;DHT22;16877;48.810;9.282;2022-11-20T11:53:08;18.90;55.70
1367;DHT22;16877;48.810;9.282;2022-11-20T11:55:39;19.40;55.50
1367;DHT22;16877;48.810;9.282;2022-11-20T11:58:16;19.70;54.60
1367;DHT22;16877;48.810;9.282;2022-11-20T12:00:51;20.10;53.90
1367;DHT22;16877;48.810;9.282;2022-11-20T12:03:24;20.40;53.60
1367;DHT22;16877;48.810;9.282;2022-11-20T12:05:57;20.80;53.40
1367;DHT22;16877;48.810;9.282;2022-11-20T12:08:31;20.90;52.60
1367;DHT22;16877;48.810;9.282;2022-11-20T12:11:03;20.90;52.10
1367;DHT22;16877;48.810;9.282;2022-11-20T12:13:48;20.90;51.60
1367;DHT22;16877;48.810;9.282;2022-11-20T12:16:19;21.00;51.30
1367;DHT22;16877;48.810;9.282;2022-11-20T12:18:49;21.10;51.20
1367;DHT22;16877;48.810;9.282;2022-11-20T12:21:19;21.30;51.10
1367;DHT22;16877;48.810;9.282;2022-11-20T12:23:58;21.60;50.40
1367;DHT22;16877;48.810;9.282;2022-11-20T12:26:42;21.90;50.50
1367;DHT22;16877;48.810;9.282;2022-11-20T12:29:18;22.20;50.30
1367;DHT22;16877;48.810;9.282;2022-11-20T12:32:06;22.10;49.40
1367;DHT22;16877;48.810;9.282;2022-11-20T12:34:45;22.10;48.80
1367;DHT22;16877;48.810;9.282;2022-11-20T12:37:24;21.90;48.10
1367;DHT22;16877;48.810;9.282;2022-11-20T12:40:02;21.70;47.80
1367;DHT22;16877;48.810;9.282;2022-11-20T12:46:09;21.50;47.20
1367;DHT22;16877;48.810;9.282;2022-11-20T12:48:43;21.80;46.70
1367;DHT22;16877;48.810;9.282;2022-11-20T12:54:52;21.50;46.10
1367;DHT22;16877;48.810;9.282;2022-11-20T12:57:29;21.50;45.80
1367;DHT22;16877;48.810;9.282;2022-11-20T13:00:07;21.50;46.00
1367;DHT22;16877;48.810;9.282;2022-11-20T13:02:45;21.40;46.00
1367;DHT22;16877;48.810;9.282;2022-11-20T13:05:24;21.60;46.00
1367;DHT22;16877;48.810;9.282;2022-11-20T13:07:53;21.90;45.10
1367;DHT22;16877;48.810;9.282;2022-11-20T13:10:26;22.20;44.70
1367;DHT22;16877;48.810;9.282;2022-11-20T13:13:00;22.30;44.40
1367;DHT22;16877;48.810;9.282;2022-11-20T13:15:42;22.50;43.80
1367;DHT22;16877;48.810;9.282;2022-11-20T13:18:11;22.50;43.20
1367;DHT22;16877;48.810;9.282;2022-11-20T13:20:42;22.40;43.00
1367;DHT22;16877;48.810;9.282;2022-11-20T13:23:09;22.10;42.70
1367;DHT22;16877;48.810;9.282;2022-11-20T13:25:38;21.90;42.50
1367;DHT22;16877;48.810;9.282;2022-11-20T13:28:28;21.60;42.20
1367;DHT22;16877;48.810;9.282;2022-11-20T13:30:56;21.40;42.20
1367;DHT22;16877;48.810;9.282;2022-11-20T13:33:27;21.10;42.50
1367;DHT22;16877;48.810;9.282;2022-11-20T13:35:56;21.00;43.00
1367;DHT22;16877;48.810;9.282;2022-11-20T13:38:23;20.90;42.90
1367;DHT22;16877;48.810;9.282;2022-11-20T13:40:52;21.10;42.30
1367;DHT22;16877;48.810;9.282;2022-11-20T13:43:23;20.90;42.00
1367;DHT22;16877;48.810;9.282;2022-11-20T13:45:59;21.00;42.40
1367;DHT22;16877;48.810;9.282;2022-11-20T13:48:30;21.30;42.40
1367;DHT22;16877;48.810;9.282;2022-11-20T13:51:07;21.60;42.50
1367;DHT22;16877;48.810;9.282;2022-11-20T13:53:51;22.00;42.60
1367;DHT22;16877;48.810;9.282;2022-11-20T13:56:24;22.10;42.40
1367;DHT22;16877;48.810;9.282;2022-11-20T13:59:02;22.00;42.00
1367;DHT22;16877;48.810;9.282;2022-11-20T14:01:31;21.90;41.90
1367;DHT22;16877;48.810;9.282;2022-11-20T14:04:05;21.70;41.40
1367;DHT22;16877;48.810;9.282;2022-11-20T14:06:38;21.70;41.50
1367;DHT22;16877;48.810;9.282;2022-11-20T14:09:09;21.50;41.40
1367;DHT22;16877;48.810;9.282;2022-11-20T14:11:37;21.40;41.40
1367;DHT22;16877;48.810;9.282;2022-11-20T14:14:16;21.30;41.50
1367;DHT22;16877;48.810;9.282;2022-11-20T14:16:45;21.40;41.60
1367;DHT22;16877;48.810;9.282;2022-11-20T14:19:25;21.50;41.80
1367;DHT22;16877;48.810;9.282;2022-11-20T14:21:54;21.60;42.00
1367;DHT22;16877;48.810;9.282;2022-11-20T14:24:23;21.50;42.10
1367;DHT22;16877;48.810;9.282;2022-11-20T14:26:51;21.30;42.20
1367;DHT22;16877;48.810;9.282;2022-11-20T14:29:19;21.10;42.30
1367;DHT22;16877;48.810;9.282;2022-11-20T14:31:52;21.00;42.50
1367;DHT22;16877;48.810;9.282;2022-11-20T14:34:23;20.90;42.60
1367;DHT22;16877;48.810;9.282;2022-11-20T14:36:53;20.60;42.60
1367;DHT22;16877;48.810;9.282;2022-11-20T14:39:24;20.50;42.80
1367;DHT22;16877;48.810;9.282;2022-11-20T14:41:52;20.30;43.00
1367;DHT22;16877;48.810;9.282;2022-11-20T14:44:23;20.20;43.30
1367;DHT22;16877;48.810;9.282;2022-11-20T14:46:54;20.10;43.50
1367;DHT22;16877;48.810;9.282;2022-11-20T14:49:21;20.00;43.60
1367;DHT22;16877;48.810;9.282;2022-11-20T14:51:58;19.80;43.80
1367;DHT22;16877;48.810;9.282;2022-11-20T14:54:25;19.70;44.10
1367;DHT22;16877;48.810;9.282;2022-11-20T14:56:54;19.60;44.20
1367;DHT22;16877;48.810;9.282;2022-11-20T14:59:23;19.50;44.30
1367;DHT22;16877;48.810;9.282;2022-11-20T15:01:57;19.40;44.30
1367;DHT22;16877;48.810;9.282;2022-11-20T15:04:24;19.30;44.30
1367;DHT22;16877;48.810;9.282;2022-11-20T15:06:53;19.10;44.20
1367;DHT22;16877;48.810;9.282;2022-11-20T15:09:20;19.00;44.20
1367;DHT22;16877;48.810;9.282;2022-11-20T15:11:53;18.90;44.30
1367;DHT22;16877;48.810;9.282;2022-11-20T15:14:20;18.80;44.30
1367;DHT22;16877;48.810;9.282;2022-11-20T15:16:48;18.70;44.60
1367;DHT22;16877;48.810;9.282;2022-11-20T15:19:18;18.60;44.60
1367;DHT22;16877;48.810;9.282;2022-11-20T15:21:45;18.50;44.60
1367;DHT22;16877;48.810;9.282;2022-11-20T15:24:12;18.50;45.10
1367;DHT22;16877;48.810;9.282;2022-11-20T15:26:38;18.40;45.10
1367;DHT22;16877;48.810;9.282;2022-11-20T15:29:08;18.30;45.20
1367;DHT22;16877;48.810;9.282;2022-11-20T15:31:36;18.30;45.30
1367;DHT22;16877;48.810;9.282;2022-11-20T15:34:04;18.20;45.40
1367;DHT22;16877;48.810;9.282;2022-11-20T15:36:33;18.20;45.60
1367;DHT22;16877;48.810;9.282;2022-11-20T15:39:00;18.10;46.00
1367;DHT22;16877;48.810;9.282;2022-11-20T15:41:27;18.10;46.10
1367;DHT22;16877;48.810;9.282;2022-11-20T15:43:54;18.00;46.00
1367;DHT22;16877;48.810;9.282;2022-11-20T15:46:25;17.90;46.30
1367;DHT22;16877;48.810;9.282;2022-11-20T15:48:55;17.80;46.60
1367;DHT22;16877;48.810;9.282;2022-11-20T15:51:26;17.70;46.70
1367;DHT22;16877;48.810;9.282;2022-11-20T15:53:54;17.70;46.70
1367;DHT22;16877;48.810;9.282;2022-11-20T15:56:22;17.60;46.80
1367;DHT22;16877;48.810;9.282;2022-11-20T15:58:48;17.60;47.00
1367;DHT22;16877;48.810;9.282;2022-11-20T16:01:17;17.50;46.90
1367;DHT22;16877;48.810;9.282;2022-11-20T16:03:45;17.50;47.30
1367;DHT22;16877;48.810;9.282;2022-11-20T16:06:11;17.50;47.20
1367;DHT22;16877;48.810;9.282;2022-11-20T16:08:38;17.40;47.40